Marjorie C — WDH6745 — position and weather

sailwx.info

Track history (hours):
 
Tides and Currents Weather Stations Pressure Air Temp Water Temp Dewpoint Dewpoint Depression Visibility Wind Speed Wind Dir Waves Ship Positions

Marjorie C

Owner: Pasha Hawaii Shipping Company LLC, San Rafael, CA. More information available from US FCC via Universal Licensing System and Coast Guard Vessel Documentation Center.

Last reported at 2017-Dec-16 01:05 UTC. Time now 2017-Dec-17 02:46 UTC.
Position N 28°51' W 133°39'.

Length 210 m; draft 7.6 m.

Type: Ship. MMSI: 367641230.

Date/timePositionNaut miles runAvg speedWind from/ knotsBaromVisibWave heightAir tempDewpointWater temp
2017-Dec-16 01:05N 28°51' W 133°39'220.2
2017-Dec-16 01:00N 28°51' W 133°41'1020.4
2017-Dec-16 00:30N 28°47' W 133°52'1520.3
2017-Dec-15 23:46N 28°42' W 134°08'2120.4
2017-Dec-15 22:44N 28°35' W 134°31'3520.4
2017-Dec-15 21:00N 28°24' W 135°09'6120.1
2017-Dec-15 18:00N 28°00' W 136°12'23219.3 080 / 191026.510.8 20.019.124.2
2017-Dec-15 06:00N 26°42' W 140°18'24520.4 090 / 301021.310.8 21.616.226.0
2017-Dec-14 18:00N 25°24' W 144°36'3630302.5 360 / 231018.810.8 18.315.425.7
2017-Dec-14 06:00N 24°06' E 148°48'   020 / 121017.610.8 21.115.426.8
2017-Dec-10 18:00N 22°48' W 152°30'59119.7 350 / 131019.510.8 22.216.727.4
2017-Dec-09 12:00N 26°06' W 142°18'82219.6 200 / 171017.310.8 21.017.525.7
2017-Dec-07 18:00N 30°36' W 127°36'12620.9 110 / 121026.510.8 18.314.520.9
2017-Dec-07 12:00N 31°18' W 125°18'819.1 050 / 81025.910.8 15.513.620.8
2017-Dec-07 11:35N 31°25' W 125°13'221.4
2017-Dec-07 11:30N 31°25' W 125°11'1020.9
2017-Dec-07 11:00N 31°29' W 124°60'1121.0
2017-Dec-07 10:30N 31°32' W 124°48'1020.8
2017-Dec-07 10:00N 31°36' W 124°37'2718.9
2017-Dec-07 08:34N 31°44' W 124°07'117.7
2017-Dec-07 08:30N 31°45' W 124°05'916.6
2017-Dec-07 07:59N 31°48' W 123°56'2017.9
2017-Dec-07 06:51N 31°55' W 123°33'721.2
2017-Dec-07 06:30N 31°57' W 123°25'3058.0
2017-Dec-07 06:00N 32°00' W 124°00'49117.4 360 / 111024.910.8 17.711.720.5
2017-Dec-07 05:35N 32°02' W 123°03'220.8
2017-Dec-07 05:30N 32°02' W 123°01'1020.8
2017-Dec-07 05:00N 32°05' W 122°49'1020.7
2017-Dec-07 04:30N 32°08' W 122°37'1020.6
2017-Dec-07 04:00N 32°10' W 122°26'1020.1
2017-Dec-07 03:30N 32°14' W 122°14'1019.7
2017-Dec-07 03:00N 32°16' W 122°03'1020.6
2017-Dec-07 02:30N 32°18' W 121°51'1020.5
2017-Dec-07 02:00N 32°21' W 121°39'1020.3
2017-Dec-07 01:30N 32°23' W 121°28'1020.4
2017-Dec-07 01:00N 32°26' W 121°16'1020.6
2017-Dec-07 00:30N 32°28' W 121°04'1020.6
2017-Dec-07 00:00N 32°31' W 120°52'1020.2
2017-Dec-06 23:30N 32°34' W 120°41'1020.3
2017-Dec-06 23:00N 32°37' W 120°29'1020.3
2017-Dec-06 22:30N 32°40' W 120°17'1020.3
2017-Dec-06 22:00N 32°43' W 120°06'1020.2
2017-Dec-06 21:30N 32°45' W 119°55'1020.6
2017-Dec-06 21:00N 32°48' W 119°43'  
Track history (hours):
 
Tides and Currents Weather Stations Pressure Air Temp Water Temp Dewpoint Dewpoint Depression Visibility Wind Speed Wind Dir Waves Ship Positions

Marjorie C

Owner: Pasha Hawaii Shipping Company LLC, San Rafael, CA. More information available from US FCC via Universal Licensing System and Coast Guard Vessel Documentation Center.

Last reported at 2017-Dec-16 01:05 UTC. Time now 2017-Dec-17 02:46 UTC.
Position N 28°51' W 133°39'.

Length 210 m; draft 7.6 m.

Type: Ship. MMSI: 367641230.

Date/timePositionNaut miles runAvg speedWind from/ knotsBaromVisibWave heightAir tempDewpointWater temp
2017-Dec-16 01:05N 28°51' W 133°39'220.2
2017-Dec-16 01:00N 28°51' W 133°41'1020.4
2017-Dec-16 00:30N 28°47' W 133°52'1520.3
2017-Dec-15 23:46N 28°42' W 134°08'2120.4
2017-Dec-15 22:44N 28°35' W 134°31'3520.4
2017-Dec-15 21:00N 28°24' W 135°09'6120.1
2017-Dec-15 18:00N 28°00' W 136°12'23219.3 080 / 191026.510.8 20.019.124.2
2017-Dec-15 06:00N 26°42' W 140°18'24520.4 090 / 301021.310.8 21.616.226.0
2017-Dec-14 18:00N 25°24' W 144°36'3630302.5 360 / 231018.810.8 18.315.425.7
2017-Dec-14 06:00N 24°06' E 148°48'   020 / 121017.610.8 21.115.426.8
2017-Dec-10 18:00N 22°48' W 152°30'59119.7 350 / 131019.510.8 22.216.727.4
2017-Dec-09 12:00N 26°06' W 142°18'82219.6 200 / 171017.310.8 21.017.525.7
2017-Dec-07 18:00N 30°36' W 127°36'12620.9 110 / 121026.510.8 18.314.520.9
2017-Dec-07 12:00N 31°18' W 125°18'819.1 050 / 81025.910.8 15.513.620.8
2017-Dec-07 11:35N 31°25' W 125°13'221.4
2017-Dec-07 11:30N 31°25' W 125°11'1020.9
2017-Dec-07 11:00N 31°29' W 124°60'1121.0
2017-Dec-07 10:30N 31°32' W 124°48'1020.8
2017-Dec-07 10:00N 31°36' W 124°37'2718.9
2017-Dec-07 08:34N 31°44' W 124°07'117.7
2017-Dec-07 08:30N 31°45' W 124°05'916.6
2017-Dec-07 07:59N 31°48' W 123°56'2017.9
2017-Dec-07 06:51N 31°55' W 123°33'721.2
2017-Dec-07 06:30N 31°57' W 123°25'3058.0
2017-Dec-07 06:00N 32°00' W 124°00'49117.4 360 / 111024.910.8 17.711.720.5
2017-Dec-07 05:35N 32°02' W 123°03'220.8
2017-Dec-07 05:30N 32°02' W 123°01'1020.8
2017-Dec-07 05:00N 32°05' W 122°49'1020.7
2017-Dec-07 04:30N 32°08' W 122°37'1020.6
2017-Dec-07 04:00N 32°10' W 122°26'1020.1
2017-Dec-07 03:30N 32°14' W 122°14'1019.7
2017-Dec-07 03:00N 32°16' W 122°03'1020.6
2017-Dec-07 02:30N 32°18' W 121°51'1020.5
2017-Dec-07 02:00N 32°21' W 121°39'1020.3
2017-Dec-07 01:30N 32°23' W 121°28'1020.4
2017-Dec-07 01:00N 32°26' W 121°16'1020.6
2017-Dec-07 00:30N 32°28' W 121°04'1020.6
2017-Dec-07 00:00N 32°31' W 120°52'1020.2
2017-Dec-06 23:30N 32°34' W 120°41'1020.3
2017-Dec-06 23:00N 32°37' W 120°29'1020.3
2017-Dec-06 22:30N 32°40' W 120°17'1020.3
2017-Dec-06 22:00N 32°43' W 120°06'1020.2
2017-Dec-06 21:30N 32°45' W 119°55'1020.6
2017-Dec-06 21:00N 32°48' W 119°43'  

Dump ship's entire track history